Aviation Digital Data Service (ADDS)

Output produced by METARs form (0321 UTC 21 September 2017)
found at http://www.aviationweather.gov/adds/metars/
 
KDCA 202324Z 2100/2124 33005KT P6SM FEW200 
     FM212300 04005KT P6SM FEW200